createdAt,value
2023-10-13T00:01:32.476Z,23.00
2023-10-13T00:04:25.408Z,23.00
2023-10-13T00:07:13.047Z,23.00
2023-10-13T00:10:00.877Z,22.90
2023-10-13T00:12:50.971Z,23.00
2023-10-13T00:15:59.588Z,23.00
2023-10-13T00:18:47.264Z,22.90
2023-10-13T00:21:36.973Z,23.00
2023-10-13T00:24:31.079Z,23.10
2023-10-13T00:27:34.791Z,22.90
2023-10-13T00:30:34.375Z,23.10
2023-10-13T00:33:23.972Z,23.10
2023-10-13T00:36:18.522Z,23.10
2023-10-13T00:39:07.230Z,23.00
2023-10-13T00:41:59.440Z,23.10
2023-10-13T00:44:50.580Z,23.00
2023-10-13T00:47:38.397Z,22.90
2023-10-13T00:50:26.290Z,22.90
2023-10-13T00:53:14.065Z,22.90
2023-10-13T00:56:08.854Z,22.90
2023-10-13T00:59:00.715Z,23.00
2023-10-13T01:01:54.952Z,22.90
2023-10-13T01:04:42.920Z,23.10
2023-10-13T01:07:30.776Z,23.10
2023-10-13T01:10:18.514Z,23.00
2023-10-13T01:13:06.396Z,22.90
2023-10-13T01:15:54.541Z,22.40
2023-10-13T01:18:49.169Z,22.50
2023-10-13T01:21:36.809Z,22.60
2023-10-13T01:24:27.184Z,22.60
2023-10-13T01:27:26.314Z,22.60
2023-10-13T01:30:14.362Z,22.60
2023-10-13T01:33:02.083Z,22.60
2023-10-13T01:35:49.726Z,22.60
2023-10-13T01:38:39.205Z,22.50
2023-10-13T01:41:27.285Z,22.60
2023-10-13T01:44:18.576Z,22.40
2023-10-13T01:47:10.266Z,22.40
2023-10-13T01:49:59.643Z,22.50
2023-10-13T01:52:47.205Z,22.20
2023-10-13T01:55:44.472Z,22.40
2023-10-13T01:58:32.482Z,22.40
2023-10-13T02:01:29.329Z,22.40
2023-10-13T02:04:18.165Z,22.40
2023-10-13T02:07:05.775Z,22.40
2023-10-13T02:09:55.753Z,22.40
2023-10-13T02:12:46.451Z,22.30
2023-10-13T02:15:36.098Z,22.10
2023-10-13T02:18:28.328Z,22.00
2023-10-13T02:21:15.907Z,21.80
2023-10-13T02:24:06.552Z,21.80
2023-10-13T02:26:54.063Z,21.70
2023-10-13T02:29:42.918Z,21.70
2023-10-13T02:32:31.596Z,21.70
2023-10-13T02:35:19.643Z,21.70
2023-10-13T02:38:11.934Z,21.60
2023-10-13T02:41:06.867Z,21.60
2023-10-13T02:43:56.521Z,21.60
2023-10-13T02:46:44.561Z,21.60
2023-10-13T02:49:35.304Z,21.70
2023-10-13T02:52:26.033Z,21.80
2023-10-13T02:55:17.433Z,21.80
2023-10-13T02:58:05.190Z,22.00
2023-10-13T03:00:52.928Z,22.10
2023-10-13T03:03:41.976Z,22.00
2023-10-13T03:06:36.132Z,22.00
2023-10-13T03:09:23.930Z,21.90
2023-10-13T03:12:11.646Z,21.90
2023-10-13T03:15:13.823Z,21.90
2023-10-13T03:18:02.819Z,21.80
2023-10-13T03:20:57.513Z,21.80
2023-10-13T03:23:47.128Z,21.70
2023-10-13T03:26:39.086Z,21.60
2023-10-13T03:29:31.945Z,21.60
2023-10-13T03:32:19.610Z,21.40
2023-10-13T03:35:26.421Z,21.30
2023-10-13T03:38:20.228Z,21.40
2023-10-13T03:41:25.782Z,21.20
2023-10-13T03:44:19.122Z,21.20
2023-10-13T03:47:19.431Z,21.10
2023-10-13T03:50:17.149Z,21.00
2023-10-13T03:53:07.386Z,21.00
2023-10-13T03:56:09.324Z,21.00
2023-10-13T03:59:08.004Z,21.10
2023-10-13T04:02:04.276Z,21.00
2023-10-13T04:04:56.925Z,20.80
2023-10-13T04:08:04.395Z,20.80
2023-10-13T04:10:54.539Z,20.70
2023-10-13T04:14:11.094Z,20.80
2023-10-13T04:16:59.416Z,20.80
2023-10-13T04:20:05.736Z,20.70
2023-10-13T04:22:53.316Z,20.90
2023-10-13T04:25:44.015Z,20.70
2023-10-13T04:28:52.020Z,20.70
2023-10-13T04:31:57.064Z,20.60
2023-10-13T04:34:47.178Z,20.50
2023-10-13T04:37:49.480Z,20.50
2023-10-13T04:41:00.195Z,20.50
2023-10-13T04:43:57.015Z,20.60
2023-10-13T04:46:47.561Z,20.50
2023-10-13T04:49:43.815Z,20.50
2023-10-13T04:53:00.354Z,20.60
2023-10-13T04:56:29.065Z,20.40
2023-10-13T04:59:19.613Z,20.40
2023-10-13T05:02:39.813Z,20.20
2023-10-13T05:05:46.996Z,20.20
2023-10-13T05:08:53.344Z,20.20
2023-10-13T05:11:59.551Z,20.40
2023-10-13T05:15:07.792Z,20.20
2023-10-13T05:18:13.787Z,20.10
2023-10-13T05:21:19.889Z,20.30
2023-10-13T05:24:26.462Z,20.20
2023-10-13T05:27:32.760Z,20.20
2023-10-13T05:30:38.986Z,20.20
2023-10-13T05:34:02.037Z,20.20
2023-10-13T05:37:07.965Z,20.30
2023-10-13T05:40:13.895Z,20.30
2023-10-13T05:43:20.120Z,20.60
2023-10-13T05:46:26.631Z,20.50
2023-10-13T05:49:17.317Z,20.50
2023-10-13T05:52:20.149Z,20.40
2023-10-13T05:55:26.672Z,20.50
2023-10-13T05:58:34.040Z,20.50
2023-10-13T06:01:40.390Z,20.60
2023-10-13T06:04:49.151Z,20.70
2023-10-13T06:07:56.494Z,20.80
2023-10-13T06:11:03.931Z,20.90
2023-10-13T06:14:10.288Z,21.00
2023-10-13T06:17:16.830Z,21.00
2023-10-13T06:20:27.846Z,21.00
2023-10-13T06:23:34.974Z,21.10
2023-10-13T06:26:41.395Z,21.10
2023-10-13T06:29:28.887Z,21.30
2023-10-13T06:32:17.667Z,21.40
2023-10-13T06:35:08.781Z,21.50
2023-10-13T06:38:01.547Z,21.80
2023-10-13T06:40:51.764Z,21.80
2023-10-13T06:43:44.313Z,21.70
2023-10-13T06:46:35.239Z,22.00
2023-10-13T06:49:24.396Z,22.20
2023-10-13T06:52:12.004Z,22.60
2023-10-13T06:55:05.039Z,22.80
2023-10-13T06:57:52.813Z,23.00
2023-10-13T07:00:42.052Z,23.30
2023-10-13T07:03:29.681Z,23.40
2023-10-13T07:06:19.406Z,23.90
2023-10-13T07:09:16.524Z,24.10
2023-10-13T07:12:27.405Z,24.40
2023-10-13T07:15:17.978Z,24.60
2023-10-13T07:18:07.026Z,24.70
2023-10-13T07:20:58.949Z,24.00
2023-10-13T07:24:01.742Z,23.70
2023-10-13T07:26:58.904Z,24.00
2023-10-13T07:29:47.082Z,24.60
2023-10-13T07:32:35.819Z,24.70
2023-10-13T07:35:27.734Z,24.70
2023-10-13T07:38:15.587Z,24.80
2023-10-13T07:41:09.812Z,25.00
2023-10-13T07:44:00.314Z,24.70
2023-10-13T07:46:58.975Z,25.10
2023-10-13T07:49:49.866Z,25.20
2023-10-13T07:52:37.587Z,25.70
2023-10-13T07:55:25.931Z,26.20
2023-10-13T07:58:14.869Z,26.00
2023-10-13T08:01:08.988Z,26.20
2023-10-13T08:04:06.817Z,26.60
2023-10-13T08:07:03.630Z,26.70
2023-10-13T08:09:52.806Z,26.60
2023-10-13T08:12:42.940Z,26.60
2023-10-13T08:15:33.567Z,26.20
2023-10-13T08:18:34.204Z,25.90
2023-10-13T08:21:25.239Z,27.20
2023-10-13T08:24:16.694Z,27.20
2023-10-13T08:27:16.931Z,27.80
2023-10-13T08:30:29.046Z,28.60
2023-10-13T08:33:19.765Z,29.10
2023-10-13T08:36:19.588Z,29.30
2023-10-13T08:39:27.028Z,29.60
2023-10-13T08:42:14.786Z,30.10
2023-10-13T08:45:28.380Z,30.40
2023-10-13T08:48:16.441Z,30.30
2023-10-13T08:51:26.732Z,30.70
2023-10-13T08:54:34.850Z,30.50
2023-10-13T08:57:43.160Z,30.80
2023-10-13T09:00:49.375Z,30.80
2023-10-13T09:03:42.374Z,31.10
2023-10-13T09:06:30.295Z,31.30
2023-10-13T09:09:35.972Z,31.60
2023-10-13T09:12:34.864Z,31.70
2023-10-13T09:15:51.749Z,31.60
2023-10-13T09:18:48.576Z,31.80
2023-10-13T09:21:42.958Z,32.10
2023-10-13T09:24:33.210Z,32.20
2023-10-13T09:27:20.924Z,31.90
2023-10-13T09:30:19.701Z,31.10
2023-10-13T09:33:09.735Z,30.70
2023-10-13T09:36:00.736Z,31.70
2023-10-13T09:38:50.399Z,31.90
2023-10-13T09:41:44.062Z,32.40
2023-10-13T09:44:32.533Z,32.70
2023-10-13T09:47:38.818Z,32.40
2023-10-13T09:50:35.026Z,32.80
2023-10-13T09:53:25.165Z,32.80
2023-10-13T09:56:28.280Z,32.90
2023-10-13T09:59:24.141Z,33.20
2023-10-13T10:02:19.955Z,32.70
2023-10-13T10:05:15.052Z,32.70
2023-10-13T10:08:03.279Z,33.00
2023-10-13T10:11:25.232Z,32.70
2023-10-13T10:14:43.720Z,32.90
2023-10-13T10:17:40.828Z,32.80
2023-10-13T10:20:52.688Z,33.10
2023-10-13T10:23:41.301Z,33.60
2023-10-13T10:26:31.126Z,33.90
2023-10-13T10:29:18.762Z,33.90
2023-10-13T10:32:17.195Z,34.20
2023-10-13T10:35:16.559Z,34.30
2023-10-13T10:38:16.812Z,34.40
2023-10-13T10:41:07.422Z,34.70
2023-10-13T10:43:54.994Z,34.70
2023-10-13T10:46:45.221Z,34.80
2023-10-13T10:49:43.081Z,35.00
2023-10-13T10:52:38.194Z,34.50
2023-10-13T10:55:30.018Z,34.10
2023-10-13T10:58:37.858Z,34.80
2023-10-13T11:01:35.380Z,35.00
2023-10-13T11:04:23.561Z,35.30
2023-10-13T11:07:22.854Z,35.60
2023-10-13T11:10:38.204Z,35.60
2023-10-13T11:13:31.854Z,35.60
2023-10-13T11:16:35.504Z,35.70
2023-10-13T11:19:42.306Z,35.80
2023-10-13T11:22:48.262Z,35.60
2023-10-13T11:25:36.145Z,35.30
2023-10-13T11:28:30.106Z,35.40
2023-10-13T11:31:21.170Z,35.10
2023-10-13T11:34:14.215Z,35.30
2023-10-13T11:37:23.795Z,35.40
2023-10-13T11:40:16.528Z,35.10
2023-10-13T11:43:05.514Z,34.60
2023-10-13T11:46:11.411Z,35.10
2023-10-13T11:49:06.462Z,35.40
2023-10-13T11:51:54.027Z,35.80
2023-10-13T11:54:43.181Z,35.90
2023-10-13T11:57:30.739Z,35.90
2023-10-13T12:00:48.185Z,36.00
2023-10-13T12:03:54.708Z,36.10
2023-10-13T12:07:03.876Z,36.20
2023-10-13T12:09:56.494Z,36.30
2023-10-13T12:12:49.399Z,36.10
2023-10-13T12:15:57.962Z,36.30
2023-10-13T12:18:47.107Z,36.20
2023-10-13T12:21:38.500Z,36.30
2023-10-13T12:24:36.353Z,36.40
2023-10-13T12:27:36.334Z,36.50
2023-10-13T12:30:44.811Z,36.40
2023-10-13T12:33:38.727Z,36.00
2023-10-13T12:36:32.589Z,36.50
2023-10-13T12:39:38.870Z,36.40
2023-10-13T12:42:45.233Z,36.30
2023-10-13T12:45:51.605Z,36.10
2023-10-13T12:49:05.676Z,35.00
2023-10-13T12:51:53.389Z,34.90
2023-10-13T12:54:41.069Z,35.30
2023-10-13T12:57:29.769Z,35.90
2023-10-13T13:00:26.685Z,36.20
2023-10-13T13:03:14.939Z,36.30
2023-10-13T13:06:08.447Z,36.30
2023-10-13T13:09:01.362Z,36.50
2023-10-13T13:11:50.416Z,36.60
2023-10-13T13:14:41.531Z,36.70
2023-10-13T13:17:29.218Z,36.70
2023-10-13T13:20:30.383Z,36.90
2023-10-13T13:23:18.786Z,36.40
2023-10-13T13:26:16.864Z,36.30
2023-10-13T13:29:05.283Z,36.50
2023-10-13T13:31:53.633Z,36.40
2023-10-13T13:34:41.334Z,36.60
2023-10-13T13:37:29.085Z,36.40
2023-10-13T13:40:23.447Z,36.40
2023-10-13T13:43:19.133Z,35.90
2023-10-13T13:46:10.744Z,36.10
2023-10-13T13:49:08.272Z,36.00
2023-10-13T13:51:56.055Z,35.70
2023-10-13T13:54:43.958Z,35.80
2023-10-13T13:57:31.463Z,35.80
2023-10-13T14:00:38.506Z,36.00
2023-10-13T14:03:32.654Z,36.00
2023-10-13T14:06:26.341Z,35.80
2023-10-13T14:09:18.023Z,35.60
2023-10-13T14:12:24.392Z,35.60
2023-10-13T14:15:21.386Z,35.60
2023-10-13T14:18:15.816Z,35.80
2023-10-13T14:21:05.370Z,35.40
2023-10-13T14:23:56.562Z,35.70
2023-10-13T14:26:44.458Z,35.40
2023-10-13T14:29:32.080Z,35.50
2023-10-13T14:32:20.739Z,35.50
2023-10-13T14:35:18.143Z,35.20
2023-10-13T14:38:05.815Z,35.40
2023-10-13T14:40:59.307Z,35.50
2023-10-13T14:43:49.916Z,35.30
2023-10-13T14:46:37.777Z,35.60
2023-10-13T14:49:25.281Z,35.20
2023-10-13T14:52:13.350Z,35.30
2023-10-13T14:55:00.899Z,35.10
2023-10-13T14:57:51.702Z,35.40
2023-10-13T15:00:39.790Z,35.40
2023-10-13T15:03:27.386Z,35.20
2023-10-13T15:06:31.625Z,35.10
2023-10-13T15:09:24.714Z,34.80
2023-10-13T15:12:16.161Z,34.70
2023-10-13T15:15:14.333Z,34.70
2023-10-13T15:18:02.363Z,34.50
2023-10-13T15:20:49.988Z,34.40
2023-10-13T15:23:46.530Z,34.40
2023-10-13T15:26:39.635Z,34.20
2023-10-13T15:29:27.897Z,34.30
2023-10-13T15:32:15.591Z,34.10
2023-10-13T15:35:05.560Z,34.00
2023-10-13T15:37:54.101Z,33.90
2023-10-13T15:40:45.893Z,33.80
2023-10-13T15:43:33.545Z,33.40
2023-10-13T15:49:15.903Z,32.80
2023-10-13T15:52:05.230Z,32.40
2023-10-13T15:54:52.848Z,31.90
2023-10-13T15:57:42.748Z,31.50
2023-10-13T16:00:30.746Z,31.10
2023-10-13T16:03:18.757Z,30.80
2023-10-13T16:06:10.884Z,30.60
2023-10-13T16:08:58.392Z,30.10
2023-10-13T16:11:47.100Z,29.90
2023-10-13T16:14:36.661Z,29.60
2023-10-13T16:17:24.742Z,29.40
2023-10-13T16:20:18.941Z,29.20
2023-10-13T16:23:06.863Z,29.00
2023-10-13T16:25:58.008Z,28.80
2023-10-13T16:28:45.439Z,28.60
2023-10-13T16:31:33.031Z,28.30
2023-10-13T16:34:20.599Z,28.10
2023-10-13T16:37:09.455Z,27.90
2023-10-13T16:39:56.988Z,27.60
2023-10-13T16:42:44.549Z,27.40
2023-10-13T16:45:37.198Z,27.30
2023-10-13T16:48:27.893Z,27.10
2023-10-13T16:51:16.797Z,26.90
2023-10-13T16:54:06.148Z,26.80
2023-10-13T16:56:57.006Z,26.60
2023-10-13T16:59:45.879Z,26.50
2023-10-13T17:02:34.862Z,26.40
2023-10-13T17:05:23.500Z,26.30
2023-10-13T17:08:11.737Z,26.30
2023-10-13T17:11:15.139Z,26.20
2023-10-13T17:14:06.995Z,26.20
2023-10-13T17:16:54.552Z,26.10
2023-10-13T17:19:47.666Z,26.00
2023-10-13T17:22:35.876Z,25.80
2023-10-13T17:25:24.339Z,25.80
2023-10-13T17:28:14.964Z,25.70
2023-10-13T17:31:02.529Z,25.60
2023-10-13T17:33:50.186Z,25.40
2023-10-13T17:36:39.599Z,25.30
2023-10-13T17:39:27.788Z,25.20
2023-10-13T17:42:15.418Z,25.10
2023-10-13T17:45:06.852Z,25.10
2023-10-13T17:47:54.551Z,24.90
2023-10-13T17:50:42.160Z,24.80
2023-10-13T17:53:35.524Z,24.60
2023-10-13T17:56:24.000Z,24.60
2023-10-13T17:59:13.783Z,24.50
2023-10-13T18:02:01.601Z,24.40
2023-10-13T18:04:49.176Z,24.40
2023-10-13T18:07:37.553Z,24.30
2023-10-13T18:10:25.070Z,24.30
2023-10-13T18:13:13.363Z,24.30
2023-10-13T18:16:01.129Z,24.20
2023-10-13T18:18:59.766Z,24.20
2023-10-13T18:21:48.896Z,24.10
2023-10-13T18:24:37.189Z,24.10
2023-10-13T18:27:24.790Z,24.00
2023-10-13T18:30:14.725Z,24.00
2023-10-13T18:33:02.292Z,23.60
2023-10-13T18:35:51.323Z,23.70
2023-10-13T18:38:39.153Z,23.80
2023-10-13T18:41:27.923Z,23.70
2023-10-13T18:44:15.444Z,23.60
2023-10-13T18:47:03.233Z,23.60
2023-10-13T18:49:50.776Z,23.40
2023-10-13T18:52:38.385Z,23.40
2023-10-13T18:55:27.329Z,23.30
2023-10-13T18:58:15.152Z,23.30
2023-10-13T19:01:18.652Z,23.30
2023-10-13T19:04:13.536Z,23.20
2023-10-13T19:07:01.804Z,23.20
2023-10-13T19:09:50.084Z,23.20
2023-10-13T19:12:37.755Z,23.20
2023-10-13T19:15:28.431Z,23.20
2023-10-13T19:18:16.000Z,23.00
2023-10-13T19:21:16.013Z,23.00
2023-10-13T19:24:05.188Z,22.90
2023-10-13T19:26:54.441Z,22.90
2023-10-13T19:29:41.885Z,22.80
2023-10-13T19:32:29.434Z,22.80
2023-10-13T19:35:22.402Z,22.70
2023-10-13T19:38:10.513Z,22.70
2023-10-13T19:40:58.202Z,22.60
2023-10-13T19:43:48.779Z,22.50
2023-10-13T19:46:39.344Z,22.40
2023-10-13T19:49:27.463Z,22.50
2023-10-13T19:52:18.256Z,22.60
2023-10-13T19:55:06.600Z,22.50
2023-10-13T19:57:54.786Z,22.50
2023-10-13T20:00:42.809Z,22.60
2023-10-13T20:03:30.481Z,22.60
2023-10-13T20:06:21.869Z,22.40
2023-10-13T20:09:27.557Z,22.40
2023-10-13T20:12:17.344Z,22.50
2023-10-13T20:15:08.544Z,22.50
2023-10-13T20:17:56.055Z,22.30
2023-10-13T20:20:45.478Z,22.20
2023-10-13T20:23:33.613Z,22.20
2023-10-13T20:26:21.980Z,22.10
2023-10-13T20:29:17.870Z,22.20
2023-10-13T20:32:05.696Z,22.20
2023-10-13T20:34:55.286Z,22.40
2023-10-13T20:37:43.821Z,22.20
2023-10-13T20:40:31.335Z,22.20
2023-10-13T20:43:19.179Z,22.10
2023-10-13T20:46:07.403Z,22.00
2023-10-13T20:48:55.396Z,21.90
2023-10-13T20:51:43.015Z,21.90
2023-10-13T20:54:31.822Z,21.80
2023-10-13T20:57:21.939Z,21.70
2023-10-13T21:00:20.194Z,21.80
2023-10-13T21:03:08.645Z,21.70
2023-10-13T21:05:56.727Z,21.60
2023-10-13T21:08:46.903Z,21.60
2023-10-13T21:11:37.143Z,21.60
2023-10-13T21:14:24.833Z,21.50
2023-10-13T21:17:12.410Z,21.40
2023-10-13T21:19:59.952Z,21.40
2023-10-13T21:22:54.618Z,21.40
2023-10-13T21:25:42.162Z,21.30
2023-10-13T21:28:30.770Z,21.40
2023-10-13T21:31:21.681Z,21.30
2023-10-13T21:34:10.579Z,21.20
2023-10-13T21:37:00.310Z,21.20
2023-10-13T21:39:49.294Z,21.10
2023-10-13T21:42:37.217Z,21.10
2023-10-13T21:45:25.731Z,21.10
2023-10-13T21:48:14.501Z,20.90
2023-10-13T21:51:02.346Z,20.80
2023-10-13T21:53:50.096Z,20.80
2023-10-13T21:56:40.084Z,20.70
2023-10-13T21:59:27.680Z,20.70
2023-10-13T22:02:15.868Z,20.60
2023-10-13T22:05:03.556Z,20.60
2023-10-13T22:07:51.875Z,20.50
2023-10-13T22:10:40.534Z,20.50
2023-10-13T22:13:28.044Z,20.40
2023-10-13T22:16:18.131Z,20.40
2023-10-13T22:19:06.203Z,20.40
2023-10-13T22:21:54.060Z,20.40
2023-10-13T22:24:43.274Z,20.40
2023-10-13T22:27:31.225Z,20.70
2023-10-13T22:30:19.708Z,20.60
2023-10-13T22:33:07.414Z,20.60
2023-10-13T22:35:55.104Z,20.70
2023-10-13T22:38:42.744Z,20.40
2023-10-13T22:41:34.964Z,20.10
2023-10-13T22:44:22.788Z,20.20
2023-10-13T22:47:12.093Z,20.00
2023-10-13T22:49:59.620Z,20.00
2023-10-13T22:52:47.345Z,20.00
2023-10-13T22:55:37.986Z,20.00
2023-10-13T22:58:25.569Z,20.10
2023-10-13T23:01:18.724Z,20.00
2023-10-13T23:04:06.955Z,20.00
2023-10-13T23:06:59.676Z,20.00
2023-10-13T23:09:51.403Z,20.00
2023-10-13T23:12:38.900Z,19.90
2023-10-13T23:15:26.450Z,19.80
2023-10-13T23:18:15.370Z,19.60
2023-10-13T23:21:04.522Z,19.90
2023-10-13T23:23:54.839Z,19.90
2023-10-13T23:26:42.848Z,19.90
2023-10-13T23:29:30.341Z,19.70
2023-10-13T23:32:17.896Z,19.80
2023-10-13T23:35:05.916Z,20.00
2023-10-13T23:37:54.648Z,20.10
2023-10-13T23:40:45.589Z,20.10
2023-10-13T23:43:44.196Z,20.20
2023-10-13T23:46:36.235Z,20.20
2023-10-13T23:49:24.049Z,20.10
2023-10-13T23:52:11.685Z,20.30
2023-10-13T23:55:06.316Z,20.40
2023-10-13T23:57:53.976Z,20.30
